sensor_id;sensor_type;location;lat;lon;timestamp;pressure;altitude;pressure_sealevel;temperature
12061;BMP180;6091;51.432;6.880;2023-04-23T00:00:09;100063.00;;;24.90
12061;BMP180;6091;51.432;6.880;2023-04-23T00:02:43;100073.00;;;24.90
12061;BMP180;6091;51.432;6.880;2023-04-23T00:05:13;100068.00;;;24.80
12061;BMP180;6091;51.432;6.880;2023-04-23T00:07:42;100061.00;;;24.80
12061;BMP180;6091;51.432;6.880;2023-04-23T00:10:12;100059.00;;;24.90
12061;BMP180;6091;51.432;6.880;2023-04-23T00:12:39;100069.00;;;24.80
12061;BMP180;6091;51.432;6.880;2023-04-23T00:15:07;100061.00;;;24.80
12061;BMP180;6091;51.432;6.880;2023-04-23T00:17:34;100068.00;;;24.80
12061;BMP180;6091;51.432;6.880;2023-04-23T00:20:02;100068.00;;;24.80
12061;BMP180;6091;51.432;6.880;2023-04-23T00:22:29;100061.00;;;24.80
12061;BMP180;6091;51.432;6.880;2023-04-23T00:24:56;100059.00;;;24.80
12061;BMP180;6091;51.432;6.880;2023-04-23T00:27:23;100061.00;;;24.80
12061;BMP180;6091;51.432;6.880;2023-04-23T00:29:50;100067.00;;;24.80
12061;BMP180;6091;51.432;6.880;2023-04-23T00:32:17;100067.00;;;24.80
12061;BMP180;6091;51.432;6.880;2023-04-23T00:34:44;100065.00;;;24.80
12061;BMP180;6091;51.432;6.880;2023-04-23T00:37:14;100068.00;;;24.80
12061;BMP180;6091;51.432;6.880;2023-04-23T00:39:43;100070.00;;;24.80
12061;BMP180;6091;51.432;6.880;2023-04-23T00:42:10;100066.00;;;24.80
12061;BMP180;6091;51.432;6.880;2023-04-23T00:44:39;100061.00;;;24.80
12061;BMP180;6091;51.432;6.880;2023-04-23T00:47:08;100055.00;;;24.70
12061;BMP180;6091;51.432;6.880;2023-04-23T00:49:36;100052.00;;;24.80
12061;BMP180;6091;51.432;6.880;2023-04-23T00:52:05;100050.00;;;24.70
12061;BMP180;6091;51.432;6.880;2023-04-23T00:54:32;100044.00;;;24.70
12061;BMP180;6091;51.432;6.880;2023-04-23T00:57:00;100053.00;;;24.70
12061;BMP180;6091;51.432;6.880;2023-04-23T00:59:28;100047.00;;;24.70
12061;BMP180;6091;51.432;6.880;2023-04-23T01:01:56;100051.00;;;24.70
12061;BMP180;6091;51.432;6.880;2023-04-23T01:04:28;100046.00;;;24.70
12061;BMP180;6091;51.432;6.880;2023-04-23T01:06:58;100040.00;;;24.70
12061;BMP180;6091;51.432;6.880;2023-04-23T01:09:26;100042.00;;;24.70
12061;BMP180;6091;51.432;6.880;2023-04-23T01:11:54;100051.00;;;24.70
12061;BMP180;6091;51.432;6.880;2023-04-23T01:14:21;100049.00;;;24.70
12061;BMP180;6091;51.432;6.880;2023-04-23T01:16:48;100052.00;;;24.70
12061;BMP180;6091;51.432;6.880;2023-04-23T01:19:16;100045.00;;;24.70
12061;BMP180;6091;51.432;6.880;2023-04-23T01:21:43;100051.00;;;24.70
12061;BMP180;6091;51.432;6.880;2023-04-23T01:24:12;100038.00;;;24.70
12061;BMP180;6091;51.432;6.880;2023-04-23T01:26:39;100040.00;;;24.70
12061;BMP180;6091;51.432;6.880;2023-04-23T01:29:07;100033.00;;;24.70
12061;BMP180;6091;51.432;6.880;2023-04-23T01:31:36;100032.00;;;24.70
12061;BMP180;6091;51.432;6.880;2023-04-23T01:34:04;100035.00;;;24.70
12061;BMP180;6091;51.432;6.880;2023-04-23T01:36:32;100034.00;;;24.70
12061;BMP180;6091;51.432;6.880;2023-04-23T01:39:00;100034.00;;;24.70
12061;BMP180;6091;51.432;6.880;2023-04-23T01:41:27;100027.00;;;24.60
12061;BMP180;6091;51.432;6.880;2023-04-23T01:43:56;100024.00;;;24.70
12061;BMP180;6091;51.432;6.880;2023-04-23T01:46:25;100026.00;;;24.70
12061;BMP180;6091;51.432;6.880;2023-04-23T01:48:52;100026.00;;;24.60
12061;BMP180;6091;51.432;6.880;2023-04-23T01:51:20;100020.00;;;24.60
12061;BMP180;6091;51.432;6.880;2023-04-23T01:53:49;100024.00;;;24.60
12061;BMP180;6091;51.432;6.880;2023-04-23T01:56:26;100031.00;;;24.60
12061;BMP180;6091;51.432;6.880;2023-04-23T01:58:53;100023.00;;;24.60
12061;BMP180;6091;51.432;6.880;2023-04-23T02:01:21;100030.00;;;24.60
12061;BMP180;6091;51.432;6.880;2023-04-23T02:03:49;100037.00;;;24.60
12061;BMP180;6091;51.432;6.880;2023-04-23T02:06:17;100028.00;;;24.60
12061;BMP180;6091;51.432;6.880;2023-04-23T02:08:44;100036.00;;;24.60
12061;BMP180;6091;51.432;6.880;2023-04-23T02:11:11;100030.00;;;24.60
12061;BMP180;6091;51.432;6.880;2023-04-23T02:13:39;100026.00;;;24.60
12061;BMP180;6091;51.432;6.880;2023-04-23T02:16:07;100014.00;;;24.60
12061;BMP180;6091;51.432;6.880;2023-04-23T02:18:38;100012.00;;;24.60
12061;BMP180;6091;51.432;6.880;2023-04-23T02:21:08;100020.00;;;24.60
12061;BMP180;6091;51.432;6.880;2023-04-23T02:23:39;100015.00;;;24.60
12061;BMP180;6091;51.432;6.880;2023-04-23T02:26:06;100022.00;;;24.60
12061;BMP180;6091;51.432;6.880;2023-04-23T02:28:33;100018.00;;;24.50
12061;BMP180;6091;51.432;6.880;2023-04-23T02:31:00;100022.00;;;24.50
12061;BMP180;6091;51.432;6.880;2023-04-23T02:33:27;100016.00;;;24.50
12061;BMP180;6091;51.432;6.880;2023-04-23T02:35:55;100021.00;;;24.50
12061;BMP180;6091;51.432;6.880;2023-04-23T02:38:22;100016.00;;;24.50
12061;BMP180;6091;51.432;6.880;2023-04-23T02:40:49;100021.00;;;24.50
12061;BMP180;6091;51.432;6.880;2023-04-23T02:43:16;100016.00;;;24.50
12061;BMP180;6091;51.432;6.880;2023-04-23T02:45:44;100016.00;;;24.50
12061;BMP180;6091;51.432;6.880;2023-04-23T02:48:11;100014.00;;;24.50
12061;BMP180;6091;51.432;6.880;2023-04-23T02:50:39;100010.00;;;24.50
12061;BMP180;6091;51.432;6.880;2023-04-23T02:53:06;100014.00;;;24.50
12061;BMP180;6091;51.432;6.880;2023-04-23T02:55:34;100013.00;;;24.50
12061;BMP180;6091;51.432;6.880;2023-04-23T02:58:04;100009.00;;;24.50
12061;BMP180;6091;51.432;6.880;2023-04-23T03:00:31;100007.00;;;24.50
12061;BMP180;6091;51.432;6.880;2023-04-23T03:02:58;100007.00;;;24.50
12061;BMP180;6091;51.432;6.880;2023-04-23T03:05:28;100005.00;;;24.50
12061;BMP180;6091;51.432;6.880;2023-04-23T03:07:55;100006.00;;;24.50
12061;BMP180;6091;51.432;6.880;2023-04-23T03:10:22;99995.00;;;24.40
12061;BMP180;6091;51.432;6.880;2023-04-23T03:12:50;99996.00;;;24.50
12061;BMP180;6091;51.432;6.880;2023-04-23T03:15:17;100000.00;;;24.40
12061;BMP180;6091;51.432;6.880;2023-04-23T03:17:44;99994.00;;;24.40
12061;BMP180;6091;51.432;6.880;2023-04-23T03:20:11;99995.00;;;24.40
12061;BMP180;6091;51.432;6.880;2023-04-23T03:22:39;99989.00;;;24.40
12061;BMP180;6091;51.432;6.880;2023-04-23T03:25:06;99995.00;;;24.40
12061;BMP180;6091;51.432;6.880;2023-04-23T03:27:34;100002.00;;;24.40
12061;BMP180;6091;51.432;6.880;2023-04-23T03:30:06;99985.00;;;24.40
12061;BMP180;6091;51.432;6.880;2023-04-23T03:32:35;99983.00;;;24.40
12061;BMP180;6091;51.432;6.880;2023-04-23T03:35:06;99990.00;;;24.40
12061;BMP180;6091;51.432;6.880;2023-04-23T03:37:35;99976.00;;;24.40
12061;BMP180;6091;51.432;6.880;2023-04-23T03:40:02;99984.00;;;24.40
12061;BMP180;6091;51.432;6.880;2023-04-23T03:42:34;99982.00;;;24.40
12061;BMP180;6091;51.432;6.880;2023-04-23T03:45:01;99977.00;;;24.40
12061;BMP180;6091;51.432;6.880;2023-04-23T03:47:28;99970.00;;;24.40
12061;BMP180;6091;51.432;6.880;2023-04-23T03:49:55;99968.00;;;24.40
12061;BMP180;6091;51.432;6.880;2023-04-23T03:52:22;99968.00;;;24.40
12061;BMP180;6091;51.432;6.880;2023-04-23T03:54:49;99968.00;;;24.40
12061;BMP180;6091;51.432;6.880;2023-04-23T03:57:16;99967.00;;;24.40
12061;BMP180;6091;51.432;6.880;2023-04-23T03:59:43;99964.00;;;24.40
12061;BMP180;6091;51.432;6.880;2023-04-23T04:02:11;99962.00;;;24.40
12061;BMP180;6091;51.432;6.880;2023-04-23T04:04:38;99960.00;;;24.40
12061;BMP180;6091;51.432;6.880;2023-04-23T04:07:11;99959.00;;;24.30
12061;BMP180;6091;51.432;6.880;2023-04-23T04:09:40;99956.00;;;24.40
12061;BMP180;6091;51.432;6.880;2023-04-23T04:12:07;99957.00;;;24.30
12061;BMP180;6091;51.432;6.880;2023-04-23T04:14:36;99967.00;;;24.30
12061;BMP180;6091;51.432;6.880;2023-04-23T04:17:06;99968.00;;;24.30
12061;BMP180;6091;51.432;6.880;2023-04-23T04:19:34;99967.00;;;24.30
12061;BMP180;6091;51.432;6.880;2023-04-23T04:22:01;99954.00;;;24.30
12061;BMP180;6091;51.432;6.880;2023-04-23T04:24:29;99957.00;;;24.30
12061;BMP180;6091;51.432;6.880;2023-04-23T04:26:58;99963.00;;;24.30
12061;BMP180;6091;51.432;6.880;2023-04-23T04:29:28;99951.00;;;24.30
12061;BMP180;6091;51.432;6.880;2023-04-23T04:31:59;99964.00;;;24.30
12061;BMP180;6091;51.432;6.880;2023-04-23T04:34:28;99961.00;;;24.30
12061;BMP180;6091;51.432;6.880;2023-04-23T04:36:55;99966.00;;;24.30
12061;BMP180;6091;51.432;6.880;2023-04-23T04:39:26;99963.00;;;24.30
12061;BMP180;6091;51.432;6.880;2023-04-23T04:41:53;99964.00;;;24.30
12061;BMP180;6091;51.432;6.880;2023-04-23T04:44:21;99962.00;;;24.30
12061;BMP180;6091;51.432;6.880;2023-04-23T04:46:48;99964.00;;;24.30
12061;BMP180;6091;51.432;6.880;2023-04-23T04:49:15;99973.00;;;24.20
12061;BMP180;6091;51.432;6.880;2023-04-23T04:51:45;99968.00;;;24.30
12061;BMP180;6091;51.432;6.880;2023-04-23T04:54:12;99968.00;;;24.30
12061;BMP180;6091;51.432;6.880;2023-04-23T04:56:39;99976.00;;;24.30
12061;BMP180;6091;51.432;6.880;2023-04-23T04:59:06;99977.00;;;24.30
12061;BMP180;6091;51.432;6.880;2023-04-23T05:01:33;99977.00;;;24.30
12061;BMP180;6091;51.432;6.880;2023-04-23T05:04:05;99981.00;;;24.30
12061;BMP180;6091;51.432;6.880;2023-04-23T05:06:32;99987.00;;;24.30
12061;BMP180;6091;51.432;6.880;2023-04-23T05:09:00;99986.00;;;24.30
12061;BMP180;6091;51.432;6.880;2023-04-23T05:11:27;99972.00;;;24.30
12061;BMP180;6091;51.432;6.880;2023-04-23T05:13:55;99976.00;;;24.30
12061;BMP180;6091;51.432;6.880;2023-04-23T05:16:23;99980.00;;;24.30
12061;BMP180;6091;51.432;6.880;2023-04-23T05:18:50;99984.00;;;24.30
12061;BMP180;6091;51.432;6.880;2023-04-23T05:21:18;99978.00;;;24.20
12061;BMP180;6091;51.432;6.880;2023-04-23T05:23:45;99979.00;;;24.30
12061;BMP180;6091;51.432;6.880;2023-04-23T05:26:12;99974.00;;;24.30
12061;BMP180;6091;51.432;6.880;2023-04-23T05:28:39;99987.00;;;24.30
12061;BMP180;6091;51.432;6.880;2023-04-23T05:31:07;99972.00;;;24.30
12061;BMP180;6091;51.432;6.880;2023-04-23T05:33:34;99973.00;;;24.30
12061;BMP180;6091;51.432;6.880;2023-04-23T05:36:14;99969.00;;;24.30
12061;BMP180;6091;51.432;6.880;2023-04-23T05:38:42;99977.00;;;24.30
12061;BMP180;6091;51.432;6.880;2023-04-23T05:41:09;99978.00;;;24.30
12061;BMP180;6091;51.432;6.880;2023-04-23T05:43:36;99973.00;;;24.30
12061;BMP180;6091;51.432;6.880;2023-04-23T05:46:04;99972.00;;;24.30
12061;BMP180;6091;51.432;6.880;2023-04-23T05:48:33;99976.00;;;24.30
12061;BMP180;6091;51.432;6.880;2023-04-23T05:51:00;99969.00;;;24.40
12061;BMP180;6091;51.432;6.880;2023-04-23T05:53:28;99968.00;;;24.40
12061;BMP180;6091;51.432;6.880;2023-04-23T05:55:55;99971.00;;;24.40
12061;BMP180;6091;51.432;6.880;2023-04-23T05:58:22;99962.00;;;24.30
12061;BMP180;6091;51.432;6.880;2023-04-23T06:00:50;99969.00;;;24.40
12061;BMP180;6091;51.432;6.880;2023-04-23T06:03:19;99966.00;;;24.40
12061;BMP180;6091;51.432;6.880;2023-04-23T06:05:48;99978.00;;;24.40
12061;BMP180;6091;51.432;6.880;2023-04-23T06:08:16;99976.00;;;24.40
12061;BMP180;6091;51.432;6.880;2023-04-23T06:10:46;99969.00;;;24.40
12061;BMP180;6091;51.432;6.880;2023-04-23T06:13:13;99968.00;;;24.40
12061;BMP180;6091;51.432;6.880;2023-04-23T06:15:40;99968.00;;;24.40
12061;BMP180;6091;51.432;6.880;2023-04-23T06:18:07;99975.00;;;24.40
12061;BMP180;6091;51.432;6.880;2023-04-23T06:20:36;99969.00;;;24.40
12061;BMP180;6091;51.432;6.880;2023-04-23T06:23:03;99969.00;;;24.40
12061;BMP180;6091;51.432;6.880;2023-04-23T06:25:30;99972.00;;;24.40
12061;BMP180;6091;51.432;6.880;2023-04-23T06:27:57;99976.00;;;24.40
12061;BMP180;6091;51.432;6.880;2023-04-23T06:30:24;99972.00;;;24.40
12061;BMP180;6091;51.432;6.880;2023-04-23T06:32:51;99968.00;;;24.40
12061;BMP180;6091;51.432;6.880;2023-04-23T06:35:19;99969.00;;;24.50
12061;BMP180;6091;51.432;6.880;2023-04-23T06:37:46;99965.00;;;24.50
12061;BMP180;6091;51.432;6.880;2023-04-23T06:40:14;99969.00;;;24.50
12061;BMP180;6091;51.432;6.880;2023-04-23T06:42:41;99970.00;;;24.50
12061;BMP180;6091;51.432;6.880;2023-04-23T06:45:09;99973.00;;;24.50
12061;BMP180;6091;51.432;6.880;2023-04-23T06:47:36;99972.00;;;24.50
12061;BMP180;6091;51.432;6.880;2023-04-23T06:50:04;99968.00;;;24.60
12061;BMP180;6091;51.432;6.880;2023-04-23T06:52:32;99966.00;;;24.60
12061;BMP180;6091;51.432;6.880;2023-04-23T06:54:59;99962.00;;;24.60
12061;BMP180;6091;51.432;6.880;2023-04-23T06:57:28;99965.00;;;24.60
12061;BMP180;6091;51.432;6.880;2023-04-23T06:59:56;99960.00;;;24.60
12061;BMP180;6091;51.432;6.880;2023-04-23T07:02:23;99961.00;;;24.60
12061;BMP180;6091;51.432;6.880;2023-04-23T07:04:56;99956.00;;;24.60
12061;BMP180;6091;51.432;6.880;2023-04-23T07:07:23;99960.00;;;24.60
12061;BMP180;6091;51.432;6.880;2023-04-23T07:09:50;99950.00;;;24.70
12061;BMP180;6091;51.432;6.880;2023-04-23T07:12:17;99951.00;;;24.70
12061;BMP180;6091;51.432;6.880;2023-04-23T07:14:47;99958.00;;;24.70
12061;BMP180;6091;51.432;6.880;2023-04-23T07:17:17;99950.00;;;25.10
12061;BMP180;6091;51.432;6.880;2023-04-23T07:19:44;99945.00;;;24.90
12061;BMP180;6091;51.432;6.880;2023-04-23T07:22:11;99952.00;;;24.80
12061;BMP180;6091;51.432;6.880;2023-04-23T07:24:39;99944.00;;;24.80
12061;BMP180;6091;51.432;6.880;2023-04-23T07:27:08;99937.00;;;24.80
12061;BMP180;6091;51.432;6.880;2023-04-23T07:29:35;99937.00;;;24.80
12061;BMP180;6091;51.432;6.880;2023-04-23T07:32:04;99937.00;;;24.80
12061;BMP180;6091;51.432;6.880;2023-04-23T07:34:31;99921.00;;;24.80
12061;BMP180;6091;51.432;6.880;2023-04-23T07:37:01;99917.00;;;24.80
12061;BMP180;6091;51.432;6.880;2023-04-23T07:39:28;99922.00;;;24.90
12061;BMP180;6091;51.432;6.880;2023-04-23T07:41:56;99923.00;;;24.90
12061;BMP180;6091;51.432;6.880;2023-04-23T07:44:24;99921.00;;;24.90
12061;BMP180;6091;51.432;6.880;2023-04-23T07:46:51;99919.00;;;24.90
12061;BMP180;6091;51.432;6.880;2023-04-23T07:49:19;99919.00;;;24.90
12061;BMP180;6091;51.432;6.880;2023-04-23T07:51:50;99916.00;;;25.00
12061;BMP180;6091;51.432;6.880;2023-04-23T07:54:17;99920.00;;;24.90
12061;BMP180;6091;51.432;6.880;2023-04-23T07:56:44;99916.00;;;25.00
12061;BMP180;6091;51.432;6.880;2023-04-23T07:59:11;99925.00;;;25.00
12061;BMP180;6091;51.432;6.880;2023-04-23T08:01:38;99928.00;;;25.00
12061;BMP180;6091;51.432;6.880;2023-04-23T08:04:05;99919.00;;;25.00
12061;BMP180;6091;51.432;6.880;2023-04-23T08:06:33;99924.00;;;25.10
12061;BMP180;6091;51.432;6.880;2023-04-23T08:09:01;99919.00;;;25.10
12061;BMP180;6091;51.432;6.880;2023-04-23T08:11:32;99912.00;;;25.10
12061;BMP180;6091;51.432;6.880;2023-04-23T08:13:59;99910.00;;;25.10
12061;BMP180;6091;51.432;6.880;2023-04-23T08:16:28;99920.00;;;25.10
12061;BMP180;6091;51.432;6.880;2023-04-23T08:19:02;99908.00;;;25.10
12061;BMP180;6091;51.432;6.880;2023-04-23T08:21:32;99905.00;;;25.10
12061;BMP180;6091;51.432;6.880;2023-04-23T08:24:00;99902.00;;;25.20
12061;BMP180;6091;51.432;6.880;2023-04-23T08:26:29;99896.00;;;25.20
12061;BMP180;6091;51.432;6.880;2023-04-23T08:28:57;99888.00;;;25.20
12061;BMP180;6091;51.432;6.880;2023-04-23T08:31:27;99887.00;;;25.20
12061;BMP180;6091;51.432;6.880;2023-04-23T08:33:55;99897.00;;;25.20
12061;BMP180;6091;51.432;6.880;2023-04-23T08:36:23;99894.00;;;25.20
12061;BMP180;6091;51.432;6.880;2023-04-23T08:38:51;99880.00;;;25.30
12061;BMP180;6091;51.432;6.880;2023-04-23T08:41:22;99900.00;;;25.30
12061;BMP180;6091;51.432;6.880;2023-04-23T08:44:03;99903.00;;;25.30
12061;BMP180;6091;51.432;6.880;2023-04-23T08:46:36;99893.00;;;25.30
12061;BMP180;6091;51.432;6.880;2023-04-23T08:49:06;99899.00;;;25.30
12061;BMP180;6091;51.432;6.880;2023-04-23T08:51:42;99894.00;;;25.40
12061;BMP180;6091;51.432;6.880;2023-04-23T08:54:26;99897.00;;;25.40
12061;BMP180;6091;51.432;6.880;2023-04-23T08:56:57;99899.00;;;25.40
12061;BMP180;6091;51.432;6.880;2023-04-23T08:59:30;99903.00;;;25.40
12061;BMP180;6091;51.432;6.880;2023-04-23T09:01:58;99903.00;;;25.40
12061;BMP180;6091;51.432;6.880;2023-04-23T09:04:28;99894.00;;;25.50
12061;BMP180;6091;51.432;6.880;2023-04-23T09:06:57;99898.00;;;25.50
12061;BMP180;6091;51.432;6.880;2023-04-23T09:09:28;99902.00;;;25.50
12061;BMP180;6091;51.432;6.880;2023-04-23T09:11:59;99897.00;;;25.60
12061;BMP180;6091;51.432;6.880;2023-04-23T09:14:27;99897.00;;;25.60
12061;BMP180;6091;51.432;6.880;2023-04-23T09:16:54;99880.00;;;25.60
12061;BMP180;6091;51.432;6.880;2023-04-23T09:19:22;99882.00;;;25.60
12061;BMP180;6091;51.432;6.880;2023-04-23T09:21:54;99876.00;;;25.60
12061;BMP180;6091;51.432;6.880;2023-04-23T09:24:22;99876.00;;;25.60
12061;BMP180;6091;51.432;6.880;2023-04-23T09:26:51;99883.00;;;25.70
12061;BMP180;6091;51.432;6.880;2023-04-23T09:29:23;99869.00;;;25.70
12061;BMP180;6091;51.432;6.880;2023-04-23T09:32:05;99879.00;;;25.70
12061;BMP180;6091;51.432;6.880;2023-04-23T09:34:35;99880.00;;;25.80
12061;BMP180;6091;51.432;6.880;2023-04-23T09:37:05;99874.00;;;25.80
12061;BMP180;6091;51.432;6.880;2023-04-23T09:39:38;99881.00;;;25.80
12061;BMP180;6091;51.432;6.880;2023-04-23T09:42:06;99872.00;;;25.80
12061;BMP180;6091;51.432;6.880;2023-04-23T09:44:36;99872.00;;;25.80
12061;BMP180;6091;51.432;6.880;2023-04-23T09:47:07;99865.00;;;25.90
12061;BMP180;6091;51.432;6.880;2023-04-23T09:49:52;99866.00;;;25.90
12061;BMP180;6091;51.432;6.880;2023-04-23T09:52:19;99870.00;;;26.00
12061;BMP180;6091;51.432;6.880;2023-04-23T09:54:49;99874.00;;;26.00
12061;BMP180;6091;51.432;6.880;2023-04-23T09:57:17;99872.00;;;26.00
12061;BMP180;6091;51.432;6.880;2023-04-23T09:59:44;99870.00;;;26.00
12061;BMP180;6091;51.432;6.880;2023-04-23T10:02:26;99866.00;;;26.10
12061;BMP180;6091;51.432;6.880;2023-04-23T10:04:57;99864.00;;;26.10
12061;BMP180;6091;51.432;6.880;2023-04-23T10:07:46;99854.00;;;26.10
12061;BMP180;6091;51.432;6.880;2023-04-23T10:10:19;99863.00;;;26.20
12061;BMP180;6091;51.432;6.880;2023-04-23T10:12:46;99861.00;;;26.60
12061;BMP180;6091;51.432;6.880;2023-04-23T10:15:25;99853.00;;;26.40
12061;BMP180;6091;51.432;6.880;2023-04-23T10:17:54;99861.00;;;26.40
12061;BMP180;6091;51.432;6.880;2023-04-23T10:20:23;99857.00;;;26.80
12061;BMP180;6091;51.432;6.880;2023-04-23T10:22:54;99852.00;;;26.60
12061;BMP180;6091;51.432;6.880;2023-04-23T10:25:24;99854.00;;;26.50
12061;BMP180;6091;51.432;6.880;2023-04-23T10:27:55;99846.00;;;26.50
12061;BMP180;6091;51.432;6.880;2023-04-23T10:30:25;99838.00;;;26.60
12061;BMP180;6091;51.432;6.880;2023-04-23T10:32:54;99838.00;;;26.80
12061;BMP180;6091;51.432;6.880;2023-04-23T10:35:23;99840.00;;;26.90
12061;BMP180;6091;51.432;6.880;2023-04-23T10:37:51;99840.00;;;27.10
12061;BMP180;6091;51.432;6.880;2023-04-23T10:40:28;99836.00;;;27.30
12061;BMP180;6091;51.432;6.880;2023-04-23T10:42:56;99831.00;;;27.40
12061;BMP180;6091;51.432;6.880;2023-04-23T10:45:30;99826.00;;;27.50
12061;BMP180;6091;51.432;6.880;2023-04-23T10:47:58;99830.00;;;27.50
12061;BMP180;6091;51.432;6.880;2023-04-23T10:50:34;99829.00;;;27.50
12061;BMP180;6091;51.432;6.880;2023-04-23T10:53:22;99822.00;;;27.40
12061;BMP180;6091;51.432;6.880;2023-04-23T10:56:05;99821.00;;;27.30
12061;BMP180;6091;51.432;6.880;2023-04-23T10:58:49;99818.00;;;27.20
12061;BMP180;6091;51.432;6.880;2023-04-23T11:01:18;99831.00;;;27.30
12061;BMP180;6091;51.432;6.880;2023-04-23T11:03:50;99828.00;;;27.10
12061;BMP180;6091;51.432;6.880;2023-04-23T11:09:47;99820.00;;;26.80
12061;BMP180;6091;51.432;6.880;2023-04-23T11:14:57;99808.00;;;26.70
12061;BMP180;6091;51.432;6.880;2023-04-23T11:20:19;99805.00;;;26.80
12061;BMP180;6091;51.432;6.880;2023-04-23T11:22:54;99809.00;;;26.90
12061;BMP180;6091;51.432;6.880;2023-04-23T11:25:25;99802.00;;;26.90
12061;BMP180;6091;51.432;6.880;2023-04-23T11:27:57;99802.00;;;26.90
12061;BMP180;6091;51.432;6.880;2023-04-23T11:30:28;99803.00;;;26.90
12061;BMP180;6091;51.432;6.880;2023-04-23T11:32:57;99797.00;;;26.90
12061;BMP180;6091;51.432;6.880;2023-04-23T11:35:26;99788.00;;;26.90
12061;BMP180;6091;51.432;6.880;2023-04-23T11:37:58;99778.00;;;26.90
12061;BMP180;6091;51.432;6.880;2023-04-23T11:40:26;99768.00;;;26.90
12061;BMP180;6091;51.432;6.880;2023-04-23T11:42:57;99774.00;;;26.90
12061;BMP180;6091;51.432;6.880;2023-04-23T11:45:28;99757.00;;;26.90
12061;BMP180;6091;51.432;6.880;2023-04-23T11:47:57;99771.00;;;26.90
12061;BMP180;6091;51.432;6.880;2023-04-23T11:50:30;99765.00;;;27.00
12061;BMP180;6091;51.432;6.880;2023-04-23T11:53:10;99768.00;;;27.00
12061;BMP180;6091;51.432;6.880;2023-04-23T11:55:37;99756.00;;;27.00
12061;BMP180;6091;51.432;6.880;2023-04-23T11:58:09;99760.00;;;27.10
12061;BMP180;6091;51.432;6.880;2023-04-23T12:00:38;99750.00;;;27.10
12061;BMP180;6091;51.432;6.880;2023-04-23T12:03:06;99743.00;;;27.10
12061;BMP180;6091;51.432;6.880;2023-04-23T12:05:39;99749.00;;;27.20
12061;BMP180;6091;51.432;6.880;2023-04-23T12:08:14;99737.00;;;27.30
12061;BMP180;6091;51.432;6.880;2023-04-23T12:10:48;99733.00;;;27.40
12061;BMP180;6091;51.432;6.880;2023-04-23T12:13:24;99724.00;;;27.50
12061;BMP180;6091;51.432;6.880;2023-04-23T12:15:57;99726.00;;;27.60
12061;BMP180;6091;51.432;6.880;2023-04-23T12:18:39;99712.00;;;27.60
12061;BMP180;6091;51.432;6.880;2023-04-23T12:21:13;99711.00;;;27.70
12061;BMP180;6091;51.432;6.880;2023-04-23T12:23:41;99713.00;;;27.70
12061;BMP180;6091;51.432;6.880;2023-04-23T12:26:13;99714.00;;;27.70
12061;BMP180;6091;51.432;6.880;2023-04-23T12:28:57;99711.00;;;27.80
12061;BMP180;6091;51.432;6.880;2023-04-23T12:31:28;99714.00;;;27.70
12061;BMP180;6091;51.432;6.880;2023-04-23T12:34:08;99711.00;;;27.70
12061;BMP180;6091;51.432;6.880;2023-04-23T12:36:37;99706.00;;;27.70
12061;BMP180;6091;51.432;6.880;2023-04-23T12:39:29;99704.00;;;27.60
12061;BMP180;6091;51.432;6.880;2023-04-23T12:42:03;99703.00;;;27.70
12061;BMP180;6091;51.432;6.880;2023-04-23T12:44:33;99696.00;;;27.70
12061;BMP180;6091;51.432;6.880;2023-04-23T12:49:35;99671.00;;;28.10
12061;BMP180;6091;51.432;6.880;2023-04-23T12:52:05;99683.00;;;28.30
12061;BMP180;6091;51.432;6.880;2023-04-23T12:54:38;99679.00;;;28.60
12061;BMP180;6091;51.432;6.880;2023-04-23T12:57:09;99680.00;;;28.90
12061;BMP180;6091;51.432;6.880;2023-04-23T12:59:37;99678.00;;;29.10
12061;BMP180;6091;51.432;6.880;2023-04-23T13:02:05;99677.00;;;29.30
12061;BMP180;6091;51.432;6.880;2023-04-23T13:04:35;99677.00;;;29.40
12061;BMP180;6091;51.432;6.880;2023-04-23T13:07:03;99676.00;;;29.60
12061;BMP180;6091;51.432;6.880;2023-04-23T13:09:30;99669.00;;;29.80
12061;BMP180;6091;51.432;6.880;2023-04-23T13:11:58;99666.00;;;29.90
12061;BMP180;6091;51.432;6.880;2023-04-23T13:14:27;99664.00;;;30.10
12061;BMP180;6091;51.432;6.880;2023-04-23T13:16:54;99659.00;;;30.20
12061;BMP180;6091;51.432;6.880;2023-04-23T13:19:22;99654.00;;;30.20
12061;BMP180;6091;51.432;6.880;2023-04-23T13:21:50;99650.00;;;30.10
12061;BMP180;6091;51.432;6.880;2023-04-23T13:24:17;99645.00;;;30.10
12061;BMP180;6091;51.432;6.880;2023-04-23T13:26:47;99646.00;;;30.00
12061;BMP180;6091;51.432;6.880;2023-04-23T13:29:14;99638.00;;;30.00
12061;BMP180;6091;51.432;6.880;2023-04-23T13:31:45;99630.00;;;30.00
12061;BMP180;6091;51.432;6.880;2023-04-23T13:34:13;99627.00;;;29.90
12061;BMP180;6091;51.432;6.880;2023-04-23T13:36:40;99626.00;;;29.90
12061;BMP180;6091;51.432;6.880;2023-04-23T13:39:08;99621.00;;;29.80
12061;BMP180;6091;51.432;6.880;2023-04-23T13:41:41;99626.00;;;29.70
12061;BMP180;6091;51.432;6.880;2023-04-23T13:44:09;99620.00;;;30.00
12061;BMP180;6091;51.432;6.880;2023-04-23T13:46:36;99610.00;;;29.70
12061;BMP180;6091;51.432;6.880;2023-04-23T13:49:06;99609.00;;;29.50
12061;BMP180;6091;51.432;6.880;2023-04-23T13:51:36;99613.00;;;29.40
12061;BMP180;6091;51.432;6.880;2023-04-23T13:54:04;99607.00;;;29.40
12061;BMP180;6091;51.432;6.880;2023-04-23T13:56:31;99603.00;;;29.30
12061;BMP180;6091;51.432;6.880;2023-04-23T13:59:02;99608.00;;;29.20
12061;BMP180;6091;51.432;6.880;2023-04-23T14:01:32;99585.00;;;29.10
12061;BMP180;6091;51.432;6.880;2023-04-23T14:04:02;99593.00;;;29.00
12061;BMP180;6091;51.432;6.880;2023-04-23T14:06:30;99590.00;;;28.90
12061;BMP180;6091;51.432;6.880;2023-04-23T14:08:58;99585.00;;;28.80
12061;BMP180;6091;51.432;6.880;2023-04-23T14:11:26;99581.00;;;28.80
12061;BMP180;6091;51.432;6.880;2023-04-23T14:13:53;99569.00;;;28.70
12061;BMP180;6091;51.432;6.880;2023-04-23T14:16:20;99567.00;;;28.70
12061;BMP180;6091;51.432;6.880;2023-04-23T14:18:48;99564.00;;;28.60
12061;BMP180;6091;51.432;6.880;2023-04-23T14:21:15;99567.00;;;28.60
12061;BMP180;6091;51.432;6.880;2023-04-23T14:23:54;99560.00;;;28.50
12061;BMP180;6091;51.432;6.880;2023-04-23T14:26:27;99552.00;;;28.50
12061;BMP180;6091;51.432;6.880;2023-04-23T14:29:29;99543.00;;;28.40
12061;BMP180;6091;51.432;6.880;2023-04-23T14:31:57;99546.00;;;28.30
12061;BMP180;6091;51.432;6.880;2023-04-23T14:34:24;99540.00;;;28.30
12061;BMP180;6091;51.432;6.880;2023-04-23T14:36:52;99530.00;;;28.20
12061;BMP180;6091;51.432;6.880;2023-04-23T14:39:26;99532.00;;;28.20
12061;BMP180;6091;51.432;6.880;2023-04-23T14:41:55;99520.00;;;28.10